Sks Torrens — LAJM5 — position and weather

sailwx.info

Track history (hours):
 
Tides and Currents Weather Stations Pressure Air Temp Water Temp Dewpoint Dewpoint Depression Visibility Wind Speed Wind Dir Waves Ship Positions

Sks Torrens

Last reported at 2017-Sep-24 13:39 UTC. Time now 2017-Sep-24 19:24 UTC.
Position N 36°06' W 000°38'.

Length 242 m; draft 8.5 m.

Type: Ship. MMSI: 259956000.

Date/timePositionNaut miles runAvg speedWind from/ knotsBaromVisibWave heightAir tempDewpointWater temp
2017-Sep-24 13:39N 36°06' W 000°38'  
2017-Sep-20 12:21N 34°59' W 007°15'0 0.8
2017-Sep-20 11:51N 34°59' W 007°15'0 0.8
2017-Sep-20 11:30N 34°59' W 007°15'0 0.8
2017-Sep-20 11:00N 34°60' W 007°16'2 0.7
2017-Sep-20 08:08N 35°01' W 007°18'0 0.8
2017-Sep-20 08:00N 35°01' W 007°18'0 0.7
2017-Sep-20 07:30N 35°01' W 007°18'0 0.7
2017-Sep-20 07:00N 35°02' W 007°19'0 0.6
2017-Sep-20 06:31N 35°02' W 007°19'0 0.6
2017-Sep-20 06:01N 35°02' W 007°19'0 0.6
2017-Sep-20 05:31N 35°02' W 007°20'0 0.5
2017-Sep-20 05:00N 35°02' W 007°20'0 0.4
2017-Sep-20 04:30N 35°02' W 007°20'0 0.4
2017-Sep-20 03:46N 35°03' W 007°20'0 0.4
2017-Sep-20 03:21N 35°03' W 007°20'0 0.5
2017-Sep-20 03:01N 35°03' W 007°20'0 0.6
2017-Sep-20 02:11N 35°03' W 007°20'0 0.6
2017-Sep-20 01:59N 35°04' W 007°20'1 0.7
2017-Sep-20 00:21N 35°05' W 007°20'0 0.7
2017-Sep-20 00:00N 35°05' W 007°20'0 0.8
2017-Sep-19 23:30N 35°05' W 007°20'1 0.8
2017-Sep-19 21:55N 35°07' W 007°21'0 0.8
2017-Sep-19 21:23N 35°07' W 007°21'0 0.8
2017-Sep-19 20:57N 35°07' W 007°21'0 0.9
2017-Sep-19 20:30N 35°08' W 007°21'0 0.8
2017-Sep-19 20:00N 35°08' W 007°21'0 0.9
2017-Sep-19 19:30N 35°09' W 007°21'1 1.0
2017-Sep-19 19:00N 35°09' W 007°21'2 1.1
2017-Sep-19 17:15N 35°11' W 007°21'0 0.9
2017-Sep-19 16:59N 35°11' W 007°21'21 0.6
2017-Sep-18 06:00N 35°32' W 007°21'1 0.7
2017-Sep-18 04:26N 35°32' W 007°22'1 0.8
2017-Sep-18 03:16N 35°33' W 007°23'0 0.6
2017-Sep-18 02:59N 35°33' W 007°24'0 0.6
2017-Sep-18 02:15N 35°33' W 007°24'0 0.5
2017-Sep-18 02:00N 35°33' W 007°24'0 0.6
2017-Sep-18 01:29N 35°33' W 007°25'1 0.5
2017-Sep-18 00:28N 35°33' W 007°25'0 0.5
2017-Sep-18 00:00N 35°33' W 007°25'1 0.5
2017-Sep-17 21:31N 35°34' W 007°26'0 0.4
2017-Sep-17 21:27N 35°34' W 007°26'30 1.8
2017-Sep-17 04:50N 35°22' W 006°52'1 0.8
2017-Sep-17 04:06N 35°23' W 006°53'4 0.8
2017-Sep-16 23:04N 35°26' W 006°55'0 0.9
2017-Sep-16 22:38N 35°26' W 006°55'0 0.9
2017-Sep-16 22:30N 35°26' W 006°55'1 1.0
2017-Sep-16 21:53N 35°27' W 006°56'1 1.1
2017-Sep-16 21:14N 35°28' W 006°56'0 1.1
2017-Sep-16 21:00N 35°28' W 006°56'32 1.3
2017-Sep-15 20:26N 35°48' W 006°25'4 1.6
2017-Sep-15 18:02N 35°47' W 006°30'0 1.6
2017-Sep-15 18:00N 35°47' W 006°30'1 1.6
2017-Sep-15 17:06N 35°46' W 006°31'0 1.5
2017-Sep-15 17:00N 35°46' W 006°32'1 1.5
2017-Sep-15 16:30N 35°46' W 006°32'1 1.4
2017-Sep-15 15:57N 35°46' W 006°33'5 1.4
2017-Sep-15 12:33N 35°45' W 006°39'0 1.5
2017-Sep-15 12:30N 35°45' W 006°39'5 1.4
2017-Sep-15 08:34N 35°43' W 006°46'8 1.2
2017-Sep-15 01:39N 35°43' W 006°56'0 1.1
2017-Sep-15 01:30N 35°43' W 006°56'1 1.4
2017-Sep-15 00:31N 35°43' W 006°57'0 1.3
2017-Sep-15 00:30N 35°43' W 006°57'1 1.4
2017-Sep-15 00:00N 35°42' W 006°58'1 1.4
2017-Sep-14 23:23N 35°42' W 006°59'1 1.3
2017-Sep-14 22:59N 35°42' W 006°59'1 1.2
2017-Sep-14 22:30N 35°41' W 007°00'1 1.2
2017-Sep-14 21:48N 35°41' W 007°01'0 1.1
2017-Sep-14 21:31N 35°41' W 007°01'1 1.1
2017-Sep-14 20:56N 35°40' W 007°02'0 0.2
2017-Sep-14 20:04N 35°40' W 007°02'0 2.2
2017-Sep-14 20:00N 35°40' W 007°02'19 9.9
2017-Sep-14 18:06N 35°48' W 006°41'410.7
2017-Sep-14 17:45N 35°49' W 006°36'510.5
2017-Sep-14 17:17N 35°51' W 006°31'310.2
2017-Sep-14 16:58N 35°52' W 006°27'510.5
2017-Sep-14 16:30N 35°53' W 006°21'610.5
2017-Sep-14 15:56N 35°56' W 006°15'810.1
2017-Sep-14 15:07N 35°57' W 006°04'  
Track history (hours):
 
Tides and Currents Weather Stations Pressure Air Temp Water Temp Dewpoint Dewpoint Depression Visibility Wind Speed Wind Dir Waves Ship Positions

Sks Torrens

Last reported at 2017-Sep-24 13:39 UTC. Time now 2017-Sep-24 19:24 UTC.
Position N 36°06' W 000°38'.

Length 242 m; draft 8.5 m.

Type: Ship. MMSI: 259956000.

Date/timePositionNaut miles runAvg speedWind from/ knotsBaromVisibWave heightAir tempDewpointWater temp
2017-Sep-24 13:39N 36°06' W 000°38'  
2017-Sep-20 12:21N 34°59' W 007°15'0 0.8
2017-Sep-20 11:51N 34°59' W 007°15'0 0.8
2017-Sep-20 11:30N 34°59' W 007°15'0 0.8
2017-Sep-20 11:00N 34°60' W 007°16'2 0.7
2017-Sep-20 08:08N 35°01' W 007°18'0 0.8
2017-Sep-20 08:00N 35°01' W 007°18'0 0.7
2017-Sep-20 07:30N 35°01' W 007°18'0 0.7
2017-Sep-20 07:00N 35°02' W 007°19'0 0.6
2017-Sep-20 06:31N 35°02' W 007°19'0 0.6
2017-Sep-20 06:01N 35°02' W 007°19'0 0.6
2017-Sep-20 05:31N 35°02' W 007°20'0 0.5
2017-Sep-20 05:00N 35°02' W 007°20'0 0.4
2017-Sep-20 04:30N 35°02' W 007°20'0 0.4
2017-Sep-20 03:46N 35°03' W 007°20'0 0.4
2017-Sep-20 03:21N 35°03' W 007°20'0 0.5
2017-Sep-20 03:01N 35°03' W 007°20'0 0.6
2017-Sep-20 02:11N 35°03' W 007°20'0 0.6
2017-Sep-20 01:59N 35°04' W 007°20'1 0.7
2017-Sep-20 00:21N 35°05' W 007°20'0 0.7
2017-Sep-20 00:00N 35°05' W 007°20'0 0.8
2017-Sep-19 23:30N 35°05' W 007°20'1 0.8
2017-Sep-19 21:55N 35°07' W 007°21'0 0.8
2017-Sep-19 21:23N 35°07' W 007°21'0 0.8
2017-Sep-19 20:57N 35°07' W 007°21'0 0.9
2017-Sep-19 20:30N 35°08' W 007°21'0 0.8
2017-Sep-19 20:00N 35°08' W 007°21'0 0.9
2017-Sep-19 19:30N 35°09' W 007°21'1 1.0
2017-Sep-19 19:00N 35°09' W 007°21'2 1.1
2017-Sep-19 17:15N 35°11' W 007°21'0 0.9
2017-Sep-19 16:59N 35°11' W 007°21'21 0.6
2017-Sep-18 06:00N 35°32' W 007°21'1 0.7
2017-Sep-18 04:26N 35°32' W 007°22'1 0.8
2017-Sep-18 03:16N 35°33' W 007°23'0 0.6
2017-Sep-18 02:59N 35°33' W 007°24'0 0.6
2017-Sep-18 02:15N 35°33' W 007°24'0 0.5
2017-Sep-18 02:00N 35°33' W 007°24'0 0.6
2017-Sep-18 01:29N 35°33' W 007°25'1 0.5
2017-Sep-18 00:28N 35°33' W 007°25'0 0.5
2017-Sep-18 00:00N 35°33' W 007°25'1 0.5
2017-Sep-17 21:31N 35°34' W 007°26'0 0.4
2017-Sep-17 21:27N 35°34' W 007°26'30 1.8
2017-Sep-17 04:50N 35°22' W 006°52'1 0.8
2017-Sep-17 04:06N 35°23' W 006°53'4 0.8
2017-Sep-16 23:04N 35°26' W 006°55'0 0.9
2017-Sep-16 22:38N 35°26' W 006°55'0 0.9
2017-Sep-16 22:30N 35°26' W 006°55'1 1.0
2017-Sep-16 21:53N 35°27' W 006°56'1 1.1
2017-Sep-16 21:14N 35°28' W 006°56'0 1.1
2017-Sep-16 21:00N 35°28' W 006°56'32 1.3
2017-Sep-15 20:26N 35°48' W 006°25'4 1.6
2017-Sep-15 18:02N 35°47' W 006°30'0 1.6
2017-Sep-15 18:00N 35°47' W 006°30'1 1.6
2017-Sep-15 17:06N 35°46' W 006°31'0 1.5
2017-Sep-15 17:00N 35°46' W 006°32'1 1.5
2017-Sep-15 16:30N 35°46' W 006°32'1 1.4
2017-Sep-15 15:57N 35°46' W 006°33'5 1.4
2017-Sep-15 12:33N 35°45' W 006°39'0 1.5
2017-Sep-15 12:30N 35°45' W 006°39'5 1.4
2017-Sep-15 08:34N 35°43' W 006°46'8 1.2
2017-Sep-15 01:39N 35°43' W 006°56'0 1.1
2017-Sep-15 01:30N 35°43' W 006°56'1 1.4
2017-Sep-15 00:31N 35°43' W 006°57'0 1.3
2017-Sep-15 00:30N 35°43' W 006°57'1 1.4
2017-Sep-15 00:00N 35°42' W 006°58'1 1.4
2017-Sep-14 23:23N 35°42' W 006°59'1 1.3
2017-Sep-14 22:59N 35°42' W 006°59'1 1.2
2017-Sep-14 22:30N 35°41' W 007°00'1 1.2
2017-Sep-14 21:48N 35°41' W 007°01'0 1.1
2017-Sep-14 21:31N 35°41' W 007°01'1 1.1
2017-Sep-14 20:56N 35°40' W 007°02'0 0.2
2017-Sep-14 20:04N 35°40' W 007°02'0 2.2
2017-Sep-14 20:00N 35°40' W 007°02'19 9.9
2017-Sep-14 18:06N 35°48' W 006°41'410.7
2017-Sep-14 17:45N 35°49' W 006°36'510.5
2017-Sep-14 17:17N 35°51' W 006°31'310.2
2017-Sep-14 16:58N 35°52' W 006°27'510.5
2017-Sep-14 16:30N 35°53' W 006°21'610.5
2017-Sep-14 15:56N 35°56' W 006°15'810.1
2017-Sep-14 15:07N 35°57' W 006°04'  

Dump ship's entire track history